createdAt,value
2017-09-05T00:02:24.000Z,21.8
2017-09-05T00:12:24.000Z,21.8
2017-09-05T00:22:24.000Z,21.8
2017-09-05T00:32:24.000Z,21.7
2017-09-05T00:42:24.000Z,21.7
2017-09-05T01:02:24.000Z,21.7
2017-09-05T01:12:24.000Z,21.6
2017-09-05T01:22:24.000Z,21.6
2017-09-05T01:32:25.000Z,21.6
2017-09-05T01:42:25.000Z,21.6
2017-09-05T01:52:24.000Z,21.5
2017-09-05T02:02:24.000Z,21.5
2017-09-05T02:12:24.000Z,21.4
2017-09-05T02:32:25.000Z,21.4
2017-09-05T02:42:26.000Z,21.6
2017-09-05T02:52:25.000Z,21.6
2017-09-05T03:02:25.000Z,21.6
2017-09-05T03:12:25.000Z,21.5
2017-09-05T03:22:25.000Z,21.6
2017-09-05T03:32:25.000Z,21.6
2017-09-05T03:42:25.000Z,21.5
2017-09-05T04:02:25.000Z,21.5
2017-09-05T04:12:25.000Z,21.4
2017-09-05T04:22:25.000Z,21.4
2017-09-05T04:32:25.000Z,21.3
2017-09-05T04:42:25.000Z,21.4
2017-09-05T04:52:25.000Z,21.4
2017-09-05T05:02:25.000Z,21.3
2017-09-05T05:12:25.000Z,21.3
2017-09-05T05:32:25.000Z,21.4
2017-09-05T05:42:25.000Z,21.2
2017-09-05T05:52:25.000Z,21.1
2017-09-05T06:02:25.000Z,20.9
2017-09-05T06:12:25.000Z,20.8
2017-09-05T06:22:25.000Z,21.4
2017-09-05T06:32:25.000Z,21.6
2017-09-05T06:42:25.000Z,21.6
2017-09-05T06:52:25.000Z,21.4
2017-09-05T07:02:25.000Z,21.3
2017-09-05T07:12:25.000Z,21.2
2017-09-05T07:22:25.000Z,21.2
2017-09-05T07:32:25.000Z,21.3
2017-09-05T07:42:25.000Z,21.3
2017-09-05T07:52:26.000Z,21.2
2017-09-05T08:02:25.000Z,21.3
2017-09-05T08:12:25.000Z,21.2
2017-09-05T08:22:25.000Z,21.3
2017-09-05T08:32:25.000Z,21.4
2017-09-05T08:42:25.000Z,21.2
2017-09-05T08:52:25.000Z,21.3
2017-09-05T09:02:26.000Z,21.4
2017-09-05T09:12:26.000Z,21.4
2017-09-05T09:22:26.000Z,21.5
2017-09-05T09:32:26.000Z,21.4
2017-09-05T09:42:26.000Z,21.4
2017-09-05T09:52:26.000Z,21.4
2017-09-05T10:02:26.000Z,21.4
2017-09-05T10:12:26.000Z,21.4
2017-09-05T10:22:26.000Z,21.5
2017-09-05T10:32:26.000Z,21.5
2017-09-05T10:42:26.000Z,21.4
2017-09-05T10:52:26.000Z,21.6
2017-09-05T11:02:26.000Z,21.8
2017-09-05T11:12:26.000Z,21.9
2017-09-05T11:22:26.000Z,22.1
2017-09-05T11:32:27.000Z,22.2
2017-09-05T11:42:26.000Z,22.2
2017-09-05T11:52:26.000Z,22.1
2017-09-05T12:02:26.000Z,22.1
2017-09-05T12:12:26.000Z,22.1
2017-09-05T12:22:26.000Z,22.1
2017-09-05T12:32:26.000Z,22.1
2017-09-05T12:42:26.000Z,22.1
2017-09-05T12:52:26.000Z,22.2
2017-09-05T13:02:26.000Z,22.3
2017-09-05T13:12:26.000Z,22.3
2017-09-05T13:22:26.000Z,22
2017-09-05T13:32:26.000Z,21.9
2017-09-05T13:42:26.000Z,21.8
2017-09-05T13:52:26.000Z,21.8
2017-09-05T14:02:26.000Z,21.7
2017-09-05T14:12:26.000Z,21.8
2017-09-05T14:22:26.000Z,21.8
2017-09-05T14:32:26.000Z,21.8
2017-09-05T14:42:26.000Z,22
2017-09-05T14:52:26.000Z,21.9
2017-09-05T15:02:26.000Z,22.1
2017-09-05T15:12:26.000Z,22.5
2017-09-05T15:22:26.000Z,22.6
2017-09-05T15:32:26.000Z,22.6
2017-09-05T15:42:27.000Z,22.6
2017-09-05T15:52:27.000Z,22.7
2017-09-05T16:02:27.000Z,22.7
2017-09-05T16:12:27.000Z,22.7
2017-09-05T16:22:27.000Z,22.8
2017-09-05T16:32:27.000Z,22.8
2017-09-05T16:42:27.000Z,22.7
2017-09-05T16:52:27.000Z,22.7
2017-09-05T17:02:27.000Z,22.6
2017-09-05T17:12:27.000Z,22.8
2017-09-05T17:22:27.000Z,22.8
2017-09-05T17:32:27.000Z,22.8
2017-09-05T17:42:27.000Z,22.9
2017-09-05T17:52:27.000Z,22.8
2017-09-05T18:02:27.000Z,22.6
2017-09-05T18:12:27.000Z,22.6
2017-09-05T18:22:27.000Z,22.6
2017-09-05T18:32:27.000Z,22.7
2017-09-05T18:42:27.000Z,22.6
2017-09-05T18:52:27.000Z,22.8
2017-09-05T19:02:27.000Z,22.8
2017-09-05T19:12:27.000Z,22.7
2017-09-05T19:22:27.000Z,22.7
2017-09-05T19:32:27.000Z,22.6
2017-09-05T19:42:27.000Z,22.4
2017-09-05T19:52:27.000Z,22.1
2017-09-05T20:02:27.000Z,22.1
2017-09-05T20:12:27.000Z,22
2017-09-05T20:22:27.000Z,22
2017-09-05T20:32:27.000Z,22
2017-09-05T20:42:27.000Z,22
2017-09-05T20:52:27.000Z,22
2017-09-05T21:02:27.000Z,21.9
2017-09-05T21:12:28.000Z,22
2017-09-05T21:22:27.000Z,22.3
2017-09-05T21:32:27.000Z,22.4
2017-09-05T21:42:27.000Z,22.6
2017-09-05T21:52:27.000Z,22.8
2017-09-05T22:02:27.000Z,22.8
2017-09-05T22:12:28.000Z,22.9
2017-09-05T22:22:28.000Z,22.9
2017-09-05T22:32:28.000Z,22.9
2017-09-05T22:42:28.000Z,22.9
2017-09-05T22:52:28.000Z,22.9
2017-09-05T23:02:28.000Z,22.9
2017-09-05T23:12:28.000Z,23
2017-09-05T23:22:28.000Z,22.9
2017-09-05T23:32:28.000Z,23.1
2017-09-05T23:42:28.000Z,22.9
2017-09-05T23:52:28.000Z,23
